sensor_id;sensor_type;location;lat;lon;timestamp;P1;durP1;ratioP1;P2;durP2;ratioP2
7997;SDS011;4044;49.814;7.828;2023-03-31T00:00:30;6.97;;;2.67;;
7997;SDS011;4044;49.814;7.828;2023-03-31T00:02:56;7.03;;;2.73;;
7997;SDS011;4044;49.814;7.828;2023-03-31T00:05:22;8.03;;;3.03;;
7997;SDS011;4044;49.814;7.828;2023-03-31T00:07:56;7.60;;;2.90;;
7997;SDS011;4044;49.814;7.828;2023-03-31T00:10:28;4.77;;;2.50;;
7997;SDS011;4044;49.814;7.828;2023-03-31T00:12:56;7.87;;;2.67;;
7997;SDS011;4044;49.814;7.828;2023-03-31T00:15:21;8.63;;;3.13;;
7997;SDS011;4044;49.814;7.828;2023-03-31T00:17:47;7.83;;;3.03;;
7997;SDS011;4044;49.814;7.828;2023-03-31T00:20:12;6.77;;;2.67;;
7997;SDS011;4044;49.814;7.828;2023-03-31T00:22:38;8.67;;;2.80;;
7997;SDS011;4044;49.814;7.828;2023-03-31T00:25:06;11.30;;;3.00;;
7997;SDS011;4044;49.814;7.828;2023-03-31T00:27:34;6.20;;;2.43;;
7997;SDS011;4044;49.814;7.828;2023-03-31T00:29:59;8.67;;;2.87;;
7997;SDS011;4044;49.814;7.828;2023-03-31T00:32:25;5.97;;;2.67;;
7997;SDS011;4044;49.814;7.828;2023-03-31T00:34:51;7.13;;;2.67;;
7997;SDS011;4044;49.814;7.828;2023-03-31T00:37:16;4.83;;;2.70;;
7997;SDS011;4044;49.814;7.828;2023-03-31T00:39:42;7.33;;;2.80;;
7997;SDS011;4044;49.814;7.828;2023-03-31T00:42:09;6.07;;;2.97;;
7997;SDS011;4044;49.814;7.828;2023-03-31T00:44:38;8.13;;;3.00;;
7997;SDS011;4044;49.814;7.828;2023-03-31T00:47:37;5.40;;;2.43;;
7997;SDS011;4044;49.814;7.828;2023-03-31T00:50:17;9.83;;;3.40;;
7997;SDS011;4044;49.814;7.828;2023-03-31T00:52:50;7.63;;;3.00;;
7997;SDS011;4044;49.814;7.828;2023-03-31T00:55:29;9.00;;;2.70;;
7997;SDS011;4044;49.814;7.828;2023-03-31T00:58:00;13.07;;;3.43;;
7997;SDS011;4044;49.814;7.828;2023-03-31T01:00:28;9.90;;;3.07;;
7997;SDS011;4044;49.814;7.828;2023-03-31T01:02:58;9.57;;;2.70;;
7997;SDS011;4044;49.814;7.828;2023-03-31T01:05:35;6.20;;;2.77;;
7997;SDS011;4044;49.814;7.828;2023-03-31T01:08:18;8.40;;;3.20;;
7997;SDS011;4044;49.814;7.828;2023-03-31T01:10:49;11.40;;;3.03;;
7997;SDS011;4044;49.814;7.828;2023-03-31T01:13:17;6.37;;;2.93;;
7997;SDS011;4044;49.814;7.828;2023-03-31T01:15:45;8.83;;;3.30;;
7997;SDS011;4044;49.814;7.828;2023-03-31T01:18:11;7.37;;;3.13;;
7997;SDS011;4044;49.814;7.828;2023-03-31T01:29:00;9.97;;;3.10;;
7997;SDS011;4044;49.814;7.828;2023-03-31T01:45:59;10.17;;;3.10;;
7997;SDS011;4044;49.814;7.828;2023-03-31T01:51:15;10.90;;;3.77;;
7997;SDS011;4044;49.814;7.828;2023-03-31T01:53:59;8.37;;;2.87;;
7997;SDS011;4044;49.814;7.828;2023-03-31T01:56:42;7.37;;;2.90;;
7997;SDS011;4044;49.814;7.828;2023-03-31T01:59:15;9.17;;;3.03;;
7997;SDS011;4044;49.814;7.828;2023-03-31T02:01:48;10.90;;;3.30;;
7997;SDS011;4044;49.814;7.828;2023-03-31T02:04:33;6.97;;;2.90;;
7997;SDS011;4044;49.814;7.828;2023-03-31T02:07:06;12.70;;;2.93;;
7997;SDS011;4044;49.814;7.828;2023-03-31T02:09:38;6.97;;;2.90;;
7997;SDS011;4044;49.814;7.828;2023-03-31T02:12:09;11.40;;;3.07;;
7997;SDS011;4044;49.814;7.828;2023-03-31T02:14:36;8.97;;;2.73;;
7997;SDS011;4044;49.814;7.828;2023-03-31T02:17:06;8.00;;;2.33;;
7997;SDS011;4044;49.814;7.828;2023-03-31T02:19:35;9.47;;;2.40;;
7997;SDS011;4044;49.814;7.828;2023-03-31T02:22:03;7.60;;;2.47;;
7997;SDS011;4044;49.814;7.828;2023-03-31T02:24:31;8.17;;;2.73;;
7997;SDS011;4044;49.814;7.828;2023-03-31T02:29:53;4.73;;;2.40;;
7997;SDS011;4044;49.814;7.828;2023-03-31T02:32:21;7.10;;;2.53;;
7997;SDS011;4044;49.814;7.828;2023-03-31T02:34:47;5.80;;;2.67;;
7997;SDS011;4044;49.814;7.828;2023-03-31T02:37:13;5.33;;;2.00;;
7997;SDS011;4044;49.814;7.828;2023-03-31T02:39:39;8.40;;;2.43;;
7997;SDS011;4044;49.814;7.828;2023-03-31T02:42:07;5.80;;;2.30;;
7997;SDS011;4044;49.814;7.828;2023-03-31T02:44:33;8.80;;;2.03;;
7997;SDS011;4044;49.814;7.828;2023-03-31T02:47:00;8.60;;;2.10;;
7997;SDS011;4044;49.814;7.828;2023-03-31T02:49:35;4.57;;;1.70;;
7997;SDS011;4044;49.814;7.828;2023-03-31T02:52:10;4.87;;;1.63;;
7997;SDS011;4044;49.814;7.828;2023-03-31T03:06:40;4.57;;;1.70;;
7997;SDS011;4044;49.814;7.828;2023-03-31T03:09:05;5.40;;;1.87;;
7997;SDS011;4044;49.814;7.828;2023-03-31T03:11:38;4.77;;;1.50;;
7997;SDS011;4044;49.814;7.828;2023-03-31T03:17:29;5.90;;;2.00;;
7997;SDS011;4044;49.814;7.828;2023-03-31T03:19:59;6.33;;;2.00;;
7997;SDS011;4044;49.814;7.828;2023-03-31T03:22:26;2.70;;;1.57;;
7997;SDS011;4044;49.814;7.828;2023-03-31T03:24:52;5.27;;;1.73;;
7997;SDS011;4044;49.814;7.828;2023-03-31T03:27:18;6.37;;;2.03;;
7997;SDS011;4044;49.814;7.828;2023-03-31T03:29:46;4.83;;;1.83;;
7997;SDS011;4044;49.814;7.828;2023-03-31T03:32:12;5.07;;;1.80;;
7997;SDS011;4044;49.814;7.828;2023-03-31T03:34:37;4.60;;;1.67;;
7997;SDS011;4044;49.814;7.828;2023-03-31T03:37:03;8.10;;;1.70;;
7997;SDS011;4044;49.814;7.828;2023-03-31T03:39:29;6.40;;;1.53;;
7997;SDS011;4044;49.814;7.828;2023-03-31T03:41:55;4.57;;;1.67;;
7997;SDS011;4044;49.814;7.828;2023-03-31T03:44:21;4.70;;;1.77;;
7997;SDS011;4044;49.814;7.828;2023-03-31T03:46:46;2.77;;;1.53;;
7997;SDS011;4044;49.814;7.828;2023-03-31T03:49:12;4.10;;;1.70;;
7997;SDS011;4044;49.814;7.828;2023-03-31T03:51:37;3.67;;;1.70;;
7997;SDS011;4044;49.814;7.828;2023-03-31T03:54:03;3.93;;;1.70;;
7997;SDS011;4044;49.814;7.828;2023-03-31T03:56:28;3.97;;;1.63;;
7997;SDS011;4044;49.814;7.828;2023-03-31T03:58:54;3.93;;;1.47;;
7997;SDS011;4044;49.814;7.828;2023-03-31T04:01:20;3.07;;;1.40;;
7997;SDS011;4044;49.814;7.828;2023-03-31T04:03:45;3.97;;;1.57;;
7997;SDS011;4044;49.814;7.828;2023-03-31T04:06:11;4.67;;;1.50;;
7997;SDS011;4044;49.814;7.828;2023-03-31T04:08:36;2.47;;;1.50;;
7997;SDS011;4044;49.814;7.828;2023-03-31T04:11:02;3.50;;;1.60;;
7997;SDS011;4044;49.814;7.828;2023-03-31T04:13:33;4.20;;;1.80;;
7997;SDS011;4044;49.814;7.828;2023-03-31T04:15:59;4.03;;;1.50;;
7997;SDS011;4044;49.814;7.828;2023-03-31T04:18:24;3.93;;;1.40;;
7997;SDS011;4044;49.814;7.828;2023-03-31T04:20:50;4.57;;;1.50;;
7997;SDS011;4044;49.814;7.828;2023-03-31T04:23:31;3.27;;;1.70;;
7997;SDS011;4044;49.814;7.828;2023-03-31T04:26:07;4.57;;;1.60;;
7997;SDS011;4044;49.814;7.828;2023-03-31T04:28:34;4.23;;;1.37;;
7997;SDS011;4044;49.814;7.828;2023-03-31T04:31:00;4.43;;;1.77;;
7997;SDS011;4044;49.814;7.828;2023-03-31T04:33:27;6.77;;;1.70;;
7997;SDS011;4044;49.814;7.828;2023-03-31T04:35:52;4.87;;;1.70;;
7997;SDS011;4044;49.814;7.828;2023-03-31T04:38:20;6.43;;;2.03;;
7997;SDS011;4044;49.814;7.828;2023-03-31T04:40:48;4.80;;;2.13;;
7997;SDS011;4044;49.814;7.828;2023-03-31T04:43:15;4.97;;;1.70;;
7997;SDS011;4044;49.814;7.828;2023-03-31T04:45:42;6.30;;;1.70;;
7997;SDS011;4044;49.814;7.828;2023-03-31T04:48:07;7.00;;;2.00;;
7997;SDS011;4044;49.814;7.828;2023-03-31T04:50:33;3.90;;;1.87;;
7997;SDS011;4044;49.814;7.828;2023-03-31T04:53:00;4.43;;;1.73;;
7997;SDS011;4044;49.814;7.828;2023-03-31T04:55:26;8.60;;;2.40;;
7997;SDS011;4044;49.814;7.828;2023-03-31T04:57:52;5.63;;;2.13;;
7997;SDS011;4044;49.814;7.828;2023-03-31T05:00:18;4.17;;;1.83;;
7997;SDS011;4044;49.814;7.828;2023-03-31T05:02:44;8.00;;;2.43;;
7997;SDS011;4044;49.814;7.828;2023-03-31T05:05:10;4.23;;;1.90;;
7997;SDS011;4044;49.814;7.828;2023-03-31T05:07:36;6.53;;;2.07;;
7997;SDS011;4044;49.814;7.828;2023-03-31T05:10:02;10.60;;;2.07;;
7997;SDS011;4044;49.814;7.828;2023-03-31T05:12:28;5.80;;;2.07;;
7997;SDS011;4044;49.814;7.828;2023-03-31T05:14:53;7.97;;;2.30;;
7997;SDS011;4044;49.814;7.828;2023-03-31T05:17:19;8.80;;;2.43;;
7997;SDS011;4044;49.814;7.828;2023-03-31T05:19:45;9.00;;;2.40;;
7997;SDS011;4044;49.814;7.828;2023-03-31T05:22:10;7.00;;;2.40;;
7997;SDS011;4044;49.814;7.828;2023-03-31T05:24:36;7.07;;;2.60;;
7997;SDS011;4044;49.814;7.828;2023-03-31T05:27:01;6.00;;;2.20;;
7997;SDS011;4044;49.814;7.828;2023-03-31T05:29:27;5.33;;;2.30;;
7997;SDS011;4044;49.814;7.828;2023-03-31T05:31:53;8.03;;;2.27;;
7997;SDS011;4044;49.814;7.828;2023-03-31T05:34:19;6.53;;;2.13;;
7997;SDS011;4044;49.814;7.828;2023-03-31T05:36:45;6.37;;;2.30;;
7997;SDS011;4044;49.814;7.828;2023-03-31T05:39:14;6.83;;;2.17;;
7997;SDS011;4044;49.814;7.828;2023-03-31T05:41:40;4.47;;;2.10;;
7997;SDS011;4044;49.814;7.828;2023-03-31T05:44:05;7.17;;;2.50;;
7997;SDS011;4044;49.814;7.828;2023-03-31T05:46:31;5.57;;;2.10;;
7997;SDS011;4044;49.814;7.828;2023-03-31T05:48:56;6.13;;;2.10;;
7997;SDS011;4044;49.814;7.828;2023-03-31T05:51:22;4.37;;;2.43;;
7997;SDS011;4044;49.814;7.828;2023-03-31T05:53:48;8.17;;;2.50;;
7997;SDS011;4044;49.814;7.828;2023-03-31T05:56:14;7.97;;;3.03;;
7997;SDS011;4044;49.814;7.828;2023-03-31T05:58:40;9.93;;;5.33;;
7997;SDS011;4044;49.814;7.828;2023-03-31T06:01:07;11.13;;;5.70;;
7997;SDS011;4044;49.814;7.828;2023-03-31T06:03:34;8.23;;;4.83;;
7997;SDS011;4044;49.814;7.828;2023-03-31T06:06:01;8.80;;;3.10;;
7997;SDS011;4044;49.814;7.828;2023-03-31T06:08:29;8.30;;;3.03;;
7997;SDS011;4044;49.814;7.828;2023-03-31T06:10:55;9.23;;;5.13;;
7997;SDS011;4044;49.814;7.828;2023-03-31T06:13:22;6.00;;;3.87;;
7997;SDS011;4044;49.814;7.828;2023-03-31T06:15:55;8.77;;;3.43;;
7997;SDS011;4044;49.814;7.828;2023-03-31T06:18:21;5.67;;;3.30;;
7997;SDS011;4044;49.814;7.828;2023-03-31T06:20:47;5.80;;;2.90;;
7997;SDS011;4044;49.814;7.828;2023-03-31T06:23:13;5.00;;;3.30;;
7997;SDS011;4044;49.814;7.828;2023-03-31T06:25:39;5.80;;;3.50;;
7997;SDS011;4044;49.814;7.828;2023-03-31T06:28:04;6.00;;;3.50;;
7997;SDS011;4044;49.814;7.828;2023-03-31T06:30:31;7.77;;;3.93;;
7997;SDS011;4044;49.814;7.828;2023-03-31T06:32:57;8.10;;;3.73;;
7997;SDS011;4044;49.814;7.828;2023-03-31T06:35:23;6.43;;;3.50;;
7997;SDS011;4044;49.814;7.828;2023-03-31T06:37:48;8.13;;;4.10;;
7997;SDS011;4044;49.814;7.828;2023-03-31T06:40:14;8.77;;;3.70;;
7997;SDS011;4044;49.814;7.828;2023-03-31T06:42:39;5.80;;;4.13;;
7997;SDS011;4044;49.814;7.828;2023-03-31T06:45:05;13.10;;;4.67;;
7997;SDS011;4044;49.814;7.828;2023-03-31T06:47:31;18.67;;;5.37;;
7997;SDS011;4044;49.814;7.828;2023-03-31T06:49:56;9.63;;;4.80;;
7997;SDS011;4044;49.814;7.828;2023-03-31T06:52:22;5.73;;;4.10;;
7997;SDS011;4044;49.814;7.828;2023-03-31T06:54:47;12.93;;;4.80;;
7997;SDS011;4044;49.814;7.828;2023-03-31T06:57:13;8.73;;;4.33;;
7997;SDS011;4044;49.814;7.828;2023-03-31T06:59:38;8.10;;;4.50;;
7997;SDS011;4044;49.814;7.828;2023-03-31T07:02:04;12.87;;;4.80;;
7997;SDS011;4044;49.814;7.828;2023-03-31T07:04:30;8.57;;;4.60;;
7997;SDS011;4044;49.814;7.828;2023-03-31T07:06:56;8.83;;;4.40;;
7997;SDS011;4044;49.814;7.828;2023-03-31T07:09:22;8.10;;;4.77;;
7997;SDS011;4044;49.814;7.828;2023-03-31T07:11:48;6.43;;;4.87;;
7997;SDS011;4044;49.814;7.828;2023-03-31T07:14:13;8.63;;;4.83;;
7997;SDS011;4044;49.814;7.828;2023-03-31T07:16:39;5.17;;;4.10;;
7997;SDS011;4044;49.814;7.828;2023-03-31T07:19:05;9.47;;;4.50;;
7997;SDS011;4044;49.814;7.828;2023-03-31T07:21:31;6.07;;;3.70;;
7997;SDS011;4044;49.814;7.828;2023-03-31T07:23:57;5.07;;;3.80;;
7997;SDS011;4044;49.814;7.828;2023-03-31T07:26:23;6.13;;;3.67;;
7997;SDS011;4044;49.814;7.828;2023-03-31T07:28:49;6.13;;;3.73;;
7997;SDS011;4044;49.814;7.828;2023-03-31T07:31:15;6.70;;;3.70;;
7997;SDS011;4044;49.814;7.828;2023-03-31T07:33:41;4.53;;;3.57;;
7997;SDS011;4044;49.814;7.828;2023-03-31T07:36:07;5.50;;;3.30;;
7997;SDS011;4044;49.814;7.828;2023-03-31T07:38:33;5.13;;;3.23;;
7997;SDS011;4044;49.814;7.828;2023-03-31T07:40:59;5.37;;;3.30;;
7997;SDS011;4044;49.814;7.828;2023-03-31T07:43:25;5.37;;;3.70;;
7997;SDS011;4044;49.814;7.828;2023-03-31T07:45:50;5.80;;;3.47;;
7997;SDS011;4044;49.814;7.828;2023-03-31T07:48:16;5.80;;;2.90;;
7997;SDS011;4044;49.814;7.828;2023-03-31T07:50:41;4.70;;;2.77;;
7997;SDS011;4044;49.814;7.828;2023-03-31T07:53:07;5.20;;;2.40;;
7997;SDS011;4044;49.814;7.828;2023-03-31T07:55:32;3.30;;;2.40;;
7997;SDS011;4044;49.814;7.828;2023-03-31T07:57:58;5.70;;;2.40;;
7997;SDS011;4044;49.814;7.828;2023-03-31T08:00:23;3.83;;;2.30;;
7997;SDS011;4044;49.814;7.828;2023-03-31T08:02:49;6.00;;;2.53;;
7997;SDS011;4044;49.814;7.828;2023-03-31T08:05:15;5.10;;;2.60;;
7997;SDS011;4044;49.814;7.828;2023-03-31T08:07:43;3.53;;;2.90;;
7997;SDS011;4044;49.814;7.828;2023-03-31T08:10:12;5.43;;;2.60;;
7997;SDS011;4044;49.814;7.828;2023-03-31T08:12:42;6.30;;;2.77;;
7997;SDS011;4044;49.814;7.828;2023-03-31T08:15:08;7.53;;;2.83;;
7997;SDS011;4044;49.814;7.828;2023-03-31T08:17:34;3.83;;;3.00;;
7997;SDS011;4044;49.814;7.828;2023-03-31T08:20:00;4.77;;;3.20;;
7997;SDS011;4044;49.814;7.828;2023-03-31T08:22:25;7.53;;;3.10;;
7997;SDS011;4044;49.814;7.828;2023-03-31T08:24:51;5.87;;;3.00;;
7997;SDS011;4044;49.814;7.828;2023-03-31T08:27:16;5.33;;;3.13;;
7997;SDS011;4044;49.814;7.828;2023-03-31T08:29:42;5.93;;;3.00;;
7997;SDS011;4044;49.814;7.828;2023-03-31T08:32:07;7.20;;;3.00;;
7997;SDS011;4044;49.814;7.828;2023-03-31T08:34:33;7.00;;;3.70;;
7997;SDS011;4044;49.814;7.828;2023-03-31T08:36:58;5.87;;;3.77;;
7997;SDS011;4044;49.814;7.828;2023-03-31T08:39:24;5.20;;;3.43;;
7997;SDS011;4044;49.814;7.828;2023-03-31T08:41:59;6.33;;;3.73;;
7997;SDS011;4044;49.814;7.828;2023-03-31T08:47:08;9.17;;;4.00;;
7997;SDS011;4044;49.814;7.828;2023-03-31T08:49:41;11.37;;;3.47;;
7997;SDS011;4044;49.814;7.828;2023-03-31T08:52:18;9.70;;;3.40;;
7997;SDS011;4044;49.814;7.828;2023-03-31T08:54:50;8.93;;;3.40;;
7997;SDS011;4044;49.814;7.828;2023-03-31T08:57:20;9.47;;;3.73;;
7997;SDS011;4044;49.814;7.828;2023-03-31T09:00:02;7.80;;;3.27;;
7997;SDS011;4044;49.814;7.828;2023-03-31T09:11:08;9.97;;;3.20;;
7997;SDS011;4044;49.814;7.828;2023-03-31T09:13:54;7.40;;;3.03;;
7997;SDS011;4044;49.814;7.828;2023-03-31T09:19:16;15.70;;;3.87;;
7997;SDS011;4044;49.814;7.828;2023-03-31T09:21:54;10.97;;;3.30;;
7997;SDS011;4044;49.814;7.828;2023-03-31T09:24:28;10.20;;;3.30;;
7997;SDS011;4044;49.814;7.828;2023-03-31T09:26:59;10.83;;;3.10;;
7997;SDS011;4044;49.814;7.828;2023-03-31T09:29:29;11.63;;;3.70;;
7997;SDS011;4044;49.814;7.828;2023-03-31T09:32:13;12.03;;;3.33;;
7997;SDS011;4044;49.814;7.828;2023-03-31T09:34:44;12.30;;;3.97;;
7997;SDS011;4044;49.814;7.828;2023-03-31T09:37:11;13.80;;;3.73;;
7997;SDS011;4044;49.814;7.828;2023-03-31T09:39:38;11.10;;;3.30;;
7997;SDS011;4044;49.814;7.828;2023-03-31T09:42:04;12.63;;;3.83;;
7997;SDS011;4044;49.814;7.828;2023-03-31T09:44:37;12.97;;;3.23;;
7997;SDS011;4044;49.814;7.828;2023-03-31T09:47:12;13.27;;;3.07;;
7997;SDS011;4044;49.814;7.828;2023-03-31T09:49:58;10.23;;;2.17;;
7997;SDS011;4044;49.814;7.828;2023-03-31T09:54:58;5.23;;;2.10;;
7997;SDS011;4044;49.814;7.828;2023-03-31T09:57:30;9.97;;;2.70;;
7997;SDS011;4044;49.814;7.828;2023-03-31T10:00:02;9.07;;;2.33;;
7997;SDS011;4044;49.814;7.828;2023-03-31T10:02:49;8.80;;;2.83;;
7997;SDS011;4044;49.814;7.828;2023-03-31T10:05:21;9.37;;;3.23;;
7997;SDS011;4044;49.814;7.828;2023-03-31T10:07:52;10.03;;;3.03;;
7997;SDS011;4044;49.814;7.828;2023-03-31T10:10:41;12.00;;;3.10;;
7997;SDS011;4044;49.814;7.828;2023-03-31T10:13:09;9.20;;;3.20;;
7997;SDS011;4044;49.814;7.828;2023-03-31T10:15:38;7.10;;;2.50;;
7997;SDS011;4044;49.814;7.828;2023-03-31T10:18:04;8.83;;;3.00;;
7997;SDS011;4044;49.814;7.828;2023-03-31T10:20:33;11.07;;;2.87;;
7997;SDS011;4044;49.814;7.828;2023-03-31T10:23:05;10.87;;;2.80;;
7997;SDS011;4044;49.814;7.828;2023-03-31T10:25:53;13.57;;;3.40;;
7997;SDS011;4044;49.814;7.828;2023-03-31T10:28:20;10.57;;;3.20;;
7997;SDS011;4044;49.814;7.828;2023-03-31T10:30:53;11.77;;;3.23;;
7997;SDS011;4044;49.814;7.828;2023-03-31T10:33:25;12.53;;;3.93;;
7997;SDS011;4044;49.814;7.828;2023-03-31T10:35:56;10.07;;;3.30;;
7997;SDS011;4044;49.814;7.828;2023-03-31T10:38:28;9.30;;;3.27;;
7997;SDS011;4044;49.814;7.828;2023-03-31T10:40:56;8.20;;;3.33;;
7997;SDS011;4044;49.814;7.828;2023-03-31T10:45:59;12.97;;;3.80;;
7997;SDS011;4044;49.814;7.828;2023-03-31T10:48:32;13.70;;;3.93;;
7997;SDS011;4044;49.814;7.828;2023-03-31T10:53:29;13.83;;;4.23;;
7997;SDS011;4044;49.814;7.828;2023-03-31T11:01:33;12.07;;;3.33;;
7997;SDS011;4044;49.814;7.828;2023-03-31T11:12:51;10.57;;;3.30;;
7997;SDS011;4044;49.814;7.828;2023-03-31T11:15:24;9.60;;;3.50;;
7997;SDS011;4044;49.814;7.828;2023-03-31T11:21:02;11.10;;;3.40;;
7997;SDS011;4044;49.814;7.828;2023-03-31T11:23:49;10.27;;;3.37;;
7997;SDS011;4044;49.814;7.828;2023-03-31T11:29:07;12.77;;;3.37;;
7997;SDS011;4044;49.814;7.828;2023-03-31T11:31:42;15.33;;;3.50;;
7997;SDS011;4044;49.814;7.828;2023-03-31T11:37:28;11.50;;;3.73;;
7997;SDS011;4044;49.814;7.828;2023-03-31T11:40:20;9.07;;;2.83;;
7997;SDS011;4044;49.814;7.828;2023-03-31T11:46:04;10.43;;;3.07;;
7997;SDS011;4044;49.814;7.828;2023-03-31T11:48:38;4.57;;;1.67;;
7997;SDS011;4044;49.814;7.828;2023-03-31T11:51:18;4.83;;;1.70;;
7997;SDS011;4044;49.814;7.828;2023-03-31T11:53:47;3.73;;;1.63;;
7997;SDS011;4044;49.814;7.828;2023-03-31T11:56:16;4.57;;;1.73;;
7997;SDS011;4044;49.814;7.828;2023-03-31T11:58:44;4.63;;;1.83;;
7997;SDS011;4044;49.814;7.828;2023-03-31T12:04:02;8.33;;;2.30;;
7997;SDS011;4044;49.814;7.828;2023-03-31T12:06:42;4.90;;;1.83;;
7997;SDS011;4044;49.814;7.828;2023-03-31T12:09:13;5.47;;;1.80;;
7997;SDS011;4044;49.814;7.828;2023-03-31T12:14:53;7.33;;;2.30;;
7997;SDS011;4044;49.814;7.828;2023-03-31T12:17:25;7.60;;;2.40;;
7997;SDS011;4044;49.814;7.828;2023-03-31T12:19:57;8.20;;;2.40;;
7997;SDS011;4044;49.814;7.828;2023-03-31T12:24:53;5.53;;;1.95;;
7997;SDS011;4044;49.814;7.828;2023-03-31T12:27:20;6.33;;;1.60;;
7997;SDS011;4044;49.814;7.828;2023-03-31T12:29:58;5.53;;;1.80;;
7997;SDS011;4044;49.814;7.828;2023-03-31T12:32:29;3.97;;;1.75;;
7997;SDS011;4044;49.814;7.828;2023-03-31T12:40:39;2.63;;;1.10;;
7997;SDS011;4044;49.814;7.828;2023-03-31T12:49:29;3.53;;;1.07;;
7997;SDS011;4044;49.814;7.828;2023-03-31T12:57:48;5.37;;;1.40;;
7997;SDS011;4044;49.814;7.828;2023-03-31T13:02:47;4.67;;;1.37;;
7997;SDS011;4044;49.814;7.828;2023-03-31T13:08:00;3.63;;;1.17;;
7997;SDS011;4044;49.814;7.828;2023-03-31T13:10:28;1.97;;;1.10;;
7997;SDS011;4044;49.814;7.828;2023-03-31T13:15:29;4.33;;;1.00;;
7997;SDS011;4044;49.814;7.828;2023-03-31T13:18:03;2.13;;;0.83;;
7997;SDS011;4044;49.814;7.828;2023-03-31T13:20:32;6.43;;;1.57;;
7997;SDS011;4044;49.814;7.828;2023-03-31T13:23:21;3.70;;;1.17;;
7997;SDS011;4044;49.814;7.828;2023-03-31T13:25:56;2.97;;;1.27;;
7997;SDS011;4044;49.814;7.828;2023-03-31T13:33:18;1.20;;;1.03;;
7997;SDS011;4044;49.814;7.828;2023-03-31T13:35:56;5.23;;;1.23;;
7997;SDS011;4044;49.814;7.828;2023-03-31T13:55:35;1.77;;;1.27;;
7997;SDS011;4044;49.814;7.828;2023-03-31T14:04:07;3.83;;;1.58;;
7997;SDS011;4044;49.814;7.828;2023-03-31T14:07:02;3.15;;;1.50;;
7997;SDS011;4044;49.814;7.828;2023-03-31T14:09:34;3.88;;;1.83;;
7997;SDS011;4044;49.814;7.828;2023-03-31T14:14:57;5.28;;;1.90;;
7997;SDS011;4044;49.814;7.828;2023-03-31T14:17:25;6.05;;;1.73;;
7997;SDS011;4044;49.814;7.828;2023-03-31T14:20:08;5.32;;;2.10;;
7997;SDS011;4044;49.814;7.828;2023-03-31T14:31:14;4.47;;;1.58;;
7997;SDS011;4044;49.814;7.828;2023-03-31T14:36:57;4.25;;;1.80;;
7997;SDS011;4044;49.814;7.828;2023-03-31T14:39:32;2.63;;;1.50;;
7997;SDS011;4044;49.814;7.828;2023-03-31T14:42:03;3.17;;;1.70;;
7997;SDS011;4044;49.814;7.828;2023-03-31T14:44:35;4.07;;;1.50;;
7997;SDS011;4044;49.814;7.828;2023-03-31T14:47:01;4.13;;;1.70;;
7997;SDS011;4044;49.814;7.828;2023-03-31T14:49:33;4.75;;;1.90;;
7997;SDS011;4044;49.814;7.828;2023-03-31T14:52:03;5.53;;;1.95;;
7997;SDS011;4044;49.814;7.828;2023-03-31T14:54:42;4.63;;;1.67;;
7997;SDS011;4044;49.814;7.828;2023-03-31T14:57:11;4.90;;;2.10;;
7997;SDS011;4044;49.814;7.828;2023-03-31T14:59:40;4.50;;;1.63;;
7997;SDS011;4044;49.814;7.828;2023-03-31T15:02:08;3.30;;;1.75;;
7997;SDS011;4044;49.814;7.828;2023-03-31T15:04:58;5.05;;;1.92;;
7997;SDS011;4044;49.814;7.828;2023-03-31T15:07:28;4.05;;;1.90;;
7997;SDS011;4044;49.814;7.828;2023-03-31T15:09:53;3.55;;;1.80;;
7997;SDS011;4044;49.814;7.828;2023-03-31T15:12:19;5.00;;;1.70;;
7997;SDS011;4044;49.814;7.828;2023-03-31T15:14:48;3.90;;;1.70;;
7997;SDS011;4044;49.814;7.828;2023-03-31T15:17:20;5.13;;;1.92;;
7997;SDS011;4044;49.814;7.828;2023-03-31T15:19:54;3.75;;;1.50;;
7997;SDS011;4044;49.814;7.828;2023-03-31T15:22:23;3.20;;;1.70;;
7997;SDS011;4044;49.814;7.828;2023-03-31T15:24:50;3.92;;;1.80;;
7997;SDS011;4044;49.814;7.828;2023-03-31T15:27:19;4.03;;;1.80;;
7997;SDS011;4044;49.814;7.828;2023-03-31T15:29:46;5.20;;;1.80;;
7997;SDS011;4044;49.814;7.828;2023-03-31T15:34:51;4.13;;;1.67;;
7997;SDS011;4044;49.814;7.828;2023-03-31T15:37:22;3.08;;;1.70;;
7997;SDS011;4044;49.814;7.828;2023-03-31T15:39:56;4.95;;;1.83;;
7997;SDS011;4044;49.814;7.828;2023-03-31T15:42:24;6.35;;;1.60;;
7997;SDS011;4044;49.814;7.828;2023-03-31T15:47:27;6.57;;;2.05;;
7997;SDS011;4044;49.814;7.828;2023-03-31T15:49:57;5.60;;;1.77;;
7997;SDS011;4044;49.814;7.828;2023-03-31T15:52:37;3.58;;;1.80;;
7997;SDS011;4044;49.814;7.828;2023-03-31T15:57:47;13.07;;;2.67;;
7997;SDS011;4044;49.814;7.828;2023-03-31T16:03:23;10.63;;;2.40;;
7997;SDS011;4044;49.814;7.828;2023-03-31T16:05:54;9.10;;;2.43;;
7997;SDS011;4044;49.814;7.828;2023-03-31T16:08:23;8.13;;;2.63;;
7997;SDS011;4044;49.814;7.828;2023-03-31T16:11:00;11.13;;;2.90;;
7997;SDS011;4044;49.814;7.828;2023-03-31T16:13:38;9.83;;;2.87;;
7997;SDS011;4044;49.814;7.828;2023-03-31T16:16:07;10.33;;;2.60;;
7997;SDS011;4044;49.814;7.828;2023-03-31T16:18:40;10.10;;;2.90;;
7997;SDS011;4044;49.814;7.828;2023-03-31T16:21:10;10.57;;;3.00;;
7997;SDS011;4044;49.814;7.828;2023-03-31T16:23:38;8.00;;;2.70;;
7997;SDS011;4044;49.814;7.828;2023-03-31T16:26:09;5.70;;;2.50;;
7997;SDS011;4044;49.814;7.828;2023-03-31T16:28:36;11.37;;;2.57;;
7997;SDS011;4044;49.814;7.828;2023-03-31T16:31:02;9.93;;;2.30;;
7997;SDS011;4044;49.814;7.828;2023-03-31T16:33:30;11.17;;;2.00;;
7997;SDS011;4044;49.814;7.828;2023-03-31T16:36:19;7.97;;;2.40;;
7997;SDS011;4044;49.814;7.828;2023-03-31T16:38:45;8.47;;;2.60;;
7997;SDS011;4044;49.814;7.828;2023-03-31T16:41:10;8.30;;;2.50;;
7997;SDS011;4044;49.814;7.828;2023-03-31T16:43:39;8.77;;;2.47;;
7997;SDS011;4044;49.814;7.828;2023-03-31T16:46:05;7.23;;;2.23;;
7997;SDS011;4044;49.814;7.828;2023-03-31T16:48:30;7.00;;;2.17;;
7997;SDS011;4044;49.814;7.828;2023-03-31T16:50:59;6.10;;;2.10;;
7997;SDS011;4044;49.814;7.828;2023-03-31T16:53:26;2.97;;;1.70;;
7997;SDS011;4044;49.814;7.828;2023-03-31T16:55:54;5.87;;;2.17;;
7997;SDS011;4044;49.814;7.828;2023-03-31T16:58:21;4.93;;;1.70;;
7997;SDS011;4044;49.814;7.828;2023-03-31T17:00:48;6.67;;;2.00;;
7997;SDS011;4044;49.814;7.828;2023-03-31T17:03:14;5.70;;;2.10;;
7997;SDS011;4044;49.814;7.828;2023-03-31T17:05:44;6.47;;;1.93;;
7997;SDS011;4044;49.814;7.828;2023-03-31T17:08:11;6.33;;;2.03;;
7997;SDS011;4044;49.814;7.828;2023-03-31T17:10:38;4.77;;;2.00;;
7997;SDS011;4044;49.814;7.828;2023-03-31T17:13:05;6.17;;;1.80;;
7997;SDS011;4044;49.814;7.828;2023-03-31T17:15:31;7.43;;;2.20;;
7997;SDS011;4044;49.814;7.828;2023-03-31T17:18:00;9.00;;;2.20;;
7997;SDS011;4044;49.814;7.828;2023-03-31T17:20:27;8.63;;;2.53;;
7997;SDS011;4044;49.814;7.828;2023-03-31T17:22:54;16.77;;;3.17;;
7997;SDS011;4044;49.814;7.828;2023-03-31T17:25:19;9.37;;;2.40;;
7997;SDS011;4044;49.814;7.828;2023-03-31T17:27:45;4.00;;;1.90;;
7997;SDS011;4044;49.814;7.828;2023-03-31T17:30:12;6.37;;;2.10;;
7997;SDS011;4044;49.814;7.828;2023-03-31T17:32:37;4.73;;;1.80;;
7997;SDS011;4044;49.814;7.828;2023-03-31T17:35:04;3.90;;;1.60;;
7997;SDS011;4044;49.814;7.828;2023-03-31T17:37:30;4.60;;;1.90;;
7997;SDS011;4044;49.814;7.828;2023-03-31T17:39:57;7.70;;;1.60;;
7997;SDS011;4044;49.814;7.828;2023-03-31T17:42:22;6.83;;;1.93;;
7997;SDS011;4044;49.814;7.828;2023-03-31T17:44:48;6.30;;;2.00;;
7997;SDS011;4044;49.814;7.828;2023-03-31T17:47:15;6.60;;;2.23;;
7997;SDS011;4044;49.814;7.828;2023-03-31T17:49:42;8.87;;;2.30;;
7997;SDS011;4044;49.814;7.828;2023-03-31T17:52:07;7.80;;;2.20;;
7997;SDS011;4044;49.814;7.828;2023-03-31T17:54:33;7.37;;;2.07;;
7997;SDS011;4044;49.814;7.828;2023-03-31T17:56:59;7.20;;;2.80;;
7997;SDS011;4044;49.814;7.828;2023-03-31T17:59:25;9.93;;;1.87;;
7997;SDS011;4044;49.814;7.828;2023-03-31T18:01:51;7.27;;;2.03;;
7997;SDS011;4044;49.814;7.828;2023-03-31T18:04:16;4.70;;;1.63;;
7997;SDS011;4044;49.814;7.828;2023-03-31T18:06:42;4.73;;;1.90;;
7997;SDS011;4044;49.814;7.828;2023-03-31T18:09:09;6.77;;;2.00;;
7997;SDS011;4044;49.814;7.828;2023-03-31T18:11:35;3.47;;;1.53;;
7997;SDS011;4044;49.814;7.828;2023-03-31T18:14:01;4.63;;;1.63;;
7997;SDS011;4044;49.814;7.828;2023-03-31T18:16:27;5.57;;;1.73;;
7997;SDS011;4044;49.814;7.828;2023-03-31T18:18:54;8.23;;;2.07;;
7997;SDS011;4044;49.814;7.828;2023-03-31T18:21:19;6.50;;;1.93;;
7997;SDS011;4044;49.814;7.828;2023-03-31T18:23:45;3.10;;;1.60;;